sensor_id;sensor_type;location;lat;lon;timestamp;temperature;humidity
37052;DHT22;22964;52.272;13.356;2023-02-15T00:01:34;6.20;68.60
37052;DHT22;22964;52.272;13.356;2023-02-15T00:04:00;6.20;68.70
37052;DHT22;22964;52.272;13.356;2023-02-15T00:06:26;6.10;68.60
37052;DHT22;22964;52.272;13.356;2023-02-15T00:08:52;6.10;68.70
37052;DHT22;22964;52.272;13.356;2023-02-15T00:11:18;6.10;68.70
37052;DHT22;22964;52.272;13.356;2023-02-15T00:14:08;6.10;68.80
37052;DHT22;22964;52.272;13.356;2023-02-15T00:16:35;6.10;68.90
37052;DHT22;22964;52.272;13.356;2023-02-15T00:19:01;6.10;69.00
37052;DHT22;22964;52.272;13.356;2023-02-15T00:21:28;6.00;69.00
37052;DHT22;22964;52.272;13.356;2023-02-15T00:23:57;6.00;69.10
37052;DHT22;22964;52.272;13.356;2023-02-15T00:26:23;5.90;69.10
37052;DHT22;22964;52.272;13.356;2023-02-15T00:28:49;5.90;69.10
37052;DHT22;22964;52.272;13.356;2023-02-15T00:31:14;5.90;69.10
37052;DHT22;22964;52.272;13.356;2023-02-15T00:33:40;5.90;69.20
37052;DHT22;22964;52.272;13.356;2023-02-15T00:36:07;5.90;69.20
37052;DHT22;22964;52.272;13.356;2023-02-15T00:38:34;5.90;69.20
37052;DHT22;22964;52.272;13.356;2023-02-15T00:41:02;5.80;69.20
37052;DHT22;22964;52.272;13.356;2023-02-15T00:43:29;5.80;69.20
37052;DHT22;22964;52.272;13.356;2023-02-15T00:45:55;5.80;69.20
37052;DHT22;22964;52.272;13.356;2023-02-15T00:48:21;5.80;69.20
37052;DHT22;22964;52.272;13.356;2023-02-15T00:50:50;5.70;69.10
37052;DHT22;22964;52.272;13.356;2023-02-15T00:53:16;5.70;69.00
37052;DHT22;22964;52.272;13.356;2023-02-15T00:55:42;5.70;68.90
37052;DHT22;22964;52.272;13.356;2023-02-15T00:58:09;5.60;68.90
37052;DHT22;22964;52.272;13.356;2023-02-15T01:00:35;5.60;68.90
37052;DHT22;22964;52.272;13.356;2023-02-15T01:03:01;5.60;69.10
37052;DHT22;22964;52.272;13.356;2023-02-15T01:05:27;5.50;68.90
37052;DHT22;22964;52.272;13.356;2023-02-15T01:07:55;5.50;68.90
37052;DHT22;22964;52.272;13.356;2023-02-15T01:10:22;5.50;69.00
37052;DHT22;22964;52.272;13.356;2023-02-15T01:12:47;5.40;69.00
37052;DHT22;22964;52.272;13.356;2023-02-15T01:15:13;5.40;69.10
37052;DHT22;22964;52.272;13.356;2023-02-15T01:17:39;5.40;69.10
37052;DHT22;22964;52.272;13.356;2023-02-15T01:20:06;5.40;69.20
37052;DHT22;22964;52.272;13.356;2023-02-15T01:22:32;5.30;69.20
37052;DHT22;22964;52.272;13.356;2023-02-15T01:24:58;5.30;69.30
37052;DHT22;22964;52.272;13.356;2023-02-15T01:27:24;5.30;69.40
37052;DHT22;22964;52.272;13.356;2023-02-15T01:29:49;5.30;69.50
37052;DHT22;22964;52.272;13.356;2023-02-15T01:32:15;5.20;69.40
37052;DHT22;22964;52.272;13.356;2023-02-15T01:34:42;5.20;69.50
37052;DHT22;22964;52.272;13.356;2023-02-15T01:37:08;5.20;69.50
37052;DHT22;22964;52.272;13.356;2023-02-15T01:39:34;5.10;69.70
37052;DHT22;22964;52.272;13.356;2023-02-15T01:41:59;5.10;69.70
37052;DHT22;22964;52.272;13.356;2023-02-15T01:44:51;5.00;69.80
37052;DHT22;22964;52.272;13.356;2023-02-15T01:52:55;4.90;70.40
37052;DHT22;22964;52.272;13.356;2023-02-15T01:55:26;5.00;70.60
37052;DHT22;22964;52.272;13.356;2023-02-15T01:57:52;4.90;70.50
37052;DHT22;22964;52.272;13.356;2023-02-15T02:00:18;4.90;70.60
37052;DHT22;22964;52.272;13.356;2023-02-15T02:02:49;4.90;70.70
37052;DHT22;22964;52.272;13.356;2023-02-15T02:05:15;4.90;70.80
37052;DHT22;22964;52.272;13.356;2023-02-15T02:07:44;4.90;70.80
37052;DHT22;22964;52.272;13.356;2023-02-15T02:10:15;4.80;70.80
37052;DHT22;22964;52.272;13.356;2023-02-15T02:12:42;4.80;70.80
37052;DHT22;22964;52.272;13.356;2023-02-15T02:15:10;4.80;70.80
37052;DHT22;22964;52.272;13.356;2023-02-15T02:18:09;4.80;70.80
37052;DHT22;22964;52.272;13.356;2023-02-15T02:31:43;4.70;70.60
37052;DHT22;22964;52.272;13.356;2023-02-15T02:34:40;4.70;70.70
37052;DHT22;22964;52.272;13.356;2023-02-15T02:37:45;4.60;70.50
37052;DHT22;22964;52.272;13.356;2023-02-15T02:40:13;4.60;70.40
37052;DHT22;22964;52.272;13.356;2023-02-15T02:42:42;4.60;70.30
37052;DHT22;22964;52.272;13.356;2023-02-15T02:45:09;4.50;70.20
37052;DHT22;22964;52.272;13.356;2023-02-15T02:47:44;4.50;70.30
37052;DHT22;22964;52.272;13.356;2023-02-15T02:50:21;4.50;70.20
37052;DHT22;22964;52.272;13.356;2023-02-15T02:52:49;4.40;70.20
37052;DHT22;22964;52.272;13.356;2023-02-15T02:56:06;4.40;70.30
37052;DHT22;22964;52.272;13.356;2023-02-15T03:00:52;4.30;70.60
37052;DHT22;22964;52.272;13.356;2023-02-15T03:05:47;4.30;70.90
37052;DHT22;22964;52.272;13.356;2023-02-15T03:08:17;4.30;71.00
37052;DHT22;22964;52.272;13.356;2023-02-15T03:10:48;4.30;71.10
37052;DHT22;22964;52.272;13.356;2023-02-15T03:13:16;4.30;71.30
37052;DHT22;22964;52.272;13.356;2023-02-15T03:15:44;4.30;71.40
37052;DHT22;22964;52.272;13.356;2023-02-15T03:18:39;4.20;71.80
37052;DHT22;22964;52.272;13.356;2023-02-15T03:21:08;4.30;71.90
37052;DHT22;22964;52.272;13.356;2023-02-15T03:23:37;4.30;72.10
37052;DHT22;22964;52.272;13.356;2023-02-15T03:26:06;4.20;72.20
37052;DHT22;22964;52.272;13.356;2023-02-15T03:28:45;4.20;72.30
37052;DHT22;22964;52.272;13.356;2023-02-15T03:31:13;4.30;72.40
37052;DHT22;22964;52.272;13.356;2023-02-15T03:33:47;4.20;72.20
37052;DHT22;22964;52.272;13.356;2023-02-15T03:36:52;4.20;72.20
37052;DHT22;22964;52.272;13.356;2023-02-15T03:40:05;4.20;72.30
37052;DHT22;22964;52.272;13.356;2023-02-15T03:42:22;4.20;72.10
37052;DHT22;22964;52.272;13.356;2023-02-15T03:47:30;4.10;72.40
37052;DHT22;22964;52.272;13.356;2023-02-15T03:50:04;4.10;72.40
37052;DHT22;22964;52.272;13.356;2023-02-15T03:52:52;4.10;72.70
37052;DHT22;22964;52.272;13.356;2023-02-15T03:55:18;4.10;73.00
37052;DHT22;22964;52.272;13.356;2023-02-15T03:57:44;4.00;73.50
37052;DHT22;22964;52.272;13.356;2023-02-15T04:00:29;4.00;73.40
37052;DHT22;22964;52.272;13.356;2023-02-15T04:05:42;4.00;73.50
37052;DHT22;22964;52.272;13.356;2023-02-15T04:08:08;4.00;73.60
37052;DHT22;22964;52.272;13.356;2023-02-15T04:10:34;4.00;73.80
37052;DHT22;22964;52.272;13.356;2023-02-15T04:13:24;4.00;73.80
37052;DHT22;22964;52.272;13.356;2023-02-15T04:15:50;4.00;74.90
37052;DHT22;22964;52.272;13.356;2023-02-15T04:18:34;4.00;74.10
37052;DHT22;22964;52.272;13.356;2023-02-15T04:21:19;4.00;74.30
37052;DHT22;22964;52.272;13.356;2023-02-15T04:24:04;4.00;74.50
37052;DHT22;22964;52.272;13.356;2023-02-15T04:26:49;4.10;74.70
37052;DHT22;22964;52.272;13.356;2023-02-15T04:29:18;4.10;74.80
37052;DHT22;22964;52.272;13.356;2023-02-15T04:31:45;4.10;74.90
37052;DHT22;22964;52.272;13.356;2023-02-15T04:34:10;4.20;75.00
37052;DHT22;22964;52.272;13.356;2023-02-15T04:36:37;4.20;75.10
37052;DHT22;22964;52.272;13.356;2023-02-15T04:39:04;4.20;75.10
37052;DHT22;22964;52.272;13.356;2023-02-15T04:41:30;4.20;75.10
37052;DHT22;22964;52.272;13.356;2023-02-15T04:43:55;4.30;75.10
37052;DHT22;22964;52.272;13.356;2023-02-15T04:46:22;4.30;75.20
37052;DHT22;22964;52.272;13.356;2023-02-15T04:48:47;4.30;75.10
37052;DHT22;22964;52.272;13.356;2023-02-15T04:51:13;4.30;75.10
37052;DHT22;22964;52.272;13.356;2023-02-15T04:53:39;4.40;75.10
37052;DHT22;22964;52.272;13.356;2023-02-15T04:56:05;4.40;75.20
37052;DHT22;22964;52.272;13.356;2023-02-15T04:58:31;4.40;75.10
37052;DHT22;22964;52.272;13.356;2023-02-15T05:00:57;4.50;75.10
37052;DHT22;22964;52.272;13.356;2023-02-15T05:03:23;4.40;75.00
37052;DHT22;22964;52.272;13.356;2023-02-15T05:05:49;4.50;75.10
37052;DHT22;22964;52.272;13.356;2023-02-15T05:08:15;4.50;75.10
37052;DHT22;22964;52.272;13.356;2023-02-15T05:10:40;4.50;75.10
37052;DHT22;22964;52.272;13.356;2023-02-15T05:13:06;4.50;75.10
37052;DHT22;22964;52.272;13.356;2023-02-15T05:15:32;4.50;75.00
37052;DHT22;22964;52.272;13.356;2023-02-15T05:17:57;4.50;75.00
37052;DHT22;22964;52.272;13.356;2023-02-15T05:20:23;4.50;75.10
37052;DHT22;22964;52.272;13.356;2023-02-15T05:22:53;4.50;75.00
37052;DHT22;22964;52.272;13.356;2023-02-15T05:25:19;4.50;75.10
37052;DHT22;22964;52.272;13.356;2023-02-15T05:28:03;4.40;74.80
37052;DHT22;22964;52.272;13.356;2023-02-15T05:30:59;4.40;74.80
37052;DHT22;22964;52.272;13.356;2023-02-15T05:33:26;4.40;74.90
37052;DHT22;22964;52.272;13.356;2023-02-15T05:35:52;4.40;75.00
37052;DHT22;22964;52.272;13.356;2023-02-15T05:38:18;4.40;74.90
37052;DHT22;22964;52.272;13.356;2023-02-15T05:40:43;4.40;74.80
37052;DHT22;22964;52.272;13.356;2023-02-15T05:43:09;4.40;74.80
37052;DHT22;22964;52.272;13.356;2023-02-15T05:45:35;4.40;74.80
37052;DHT22;22964;52.272;13.356;2023-02-15T05:48:00;4.40;74.80
37052;DHT22;22964;52.272;13.356;2023-02-15T05:50:26;4.40;74.80
37052;DHT22;22964;52.272;13.356;2023-02-15T05:52:52;4.40;74.80
37052;DHT22;22964;52.272;13.356;2023-02-15T05:55:18;4.40;74.80
37052;DHT22;22964;52.272;13.356;2023-02-15T05:57:44;4.40;74.70
37052;DHT22;22964;52.272;13.356;2023-02-15T06:00:10;4.40;74.60
37052;DHT22;22964;52.272;13.356;2023-02-15T06:02:39;4.40;74.60
37052;DHT22;22964;52.272;13.356;2023-02-15T06:05:06;4.40;74.60
37052;DHT22;22964;52.272;13.356;2023-02-15T06:07:32;4.40;74.60
37052;DHT22;22964;52.272;13.356;2023-02-15T06:09:58;4.30;74.50
37052;DHT22;22964;52.272;13.356;2023-02-15T06:12:24;4.40;74.50
37052;DHT22;22964;52.272;13.356;2023-02-15T06:14:49;4.30;74.40
37052;DHT22;22964;52.272;13.356;2023-02-15T06:17:15;4.30;74.40
37052;DHT22;22964;52.272;13.356;2023-02-15T06:19:42;4.30;74.30
37052;DHT22;22964;52.272;13.356;2023-02-15T06:22:08;4.30;74.30
37052;DHT22;22964;52.272;13.356;2023-02-15T06:24:34;4.20;74.40
37052;DHT22;22964;52.272;13.356;2023-02-15T06:27:00;4.20;74.50
37052;DHT22;22964;52.272;13.356;2023-02-15T06:29:25;4.20;74.50
37052;DHT22;22964;52.272;13.356;2023-02-15T06:31:51;4.20;74.50
37052;DHT22;22964;52.272;13.356;2023-02-15T06:34:17;4.20;74.50
37052;DHT22;22964;52.272;13.356;2023-02-15T06:36:42;4.20;74.50
37052;DHT22;22964;52.272;13.356;2023-02-15T06:39:08;4.20;74.50
37052;DHT22;22964;52.272;13.356;2023-02-15T06:41:34;4.20;74.60
37052;DHT22;22964;52.272;13.356;2023-02-15T06:44:00;4.10;74.60
37052;DHT22;22964;52.272;13.356;2023-02-15T06:46:25;4.10;74.60
37052;DHT22;22964;52.272;13.356;2023-02-15T06:48:51;4.10;74.80
37052;DHT22;22964;52.272;13.356;2023-02-15T06:51:17;4.20;74.80
37052;DHT22;22964;52.272;13.356;2023-02-15T06:53:43;4.10;74.70
37052;DHT22;22964;52.272;13.356;2023-02-15T06:56:10;4.10;74.70
37052;DHT22;22964;52.272;13.356;2023-02-15T06:58:37;4.10;74.70
37052;DHT22;22964;52.272;13.356;2023-02-15T07:01:03;4.10;74.80
37052;DHT22;22964;52.272;13.356;2023-02-15T07:03:29;4.10;74.90
37052;DHT22;22964;52.272;13.356;2023-02-15T07:06:00;4.10;74.90
37052;DHT22;22964;52.272;13.356;2023-02-15T07:08:27;4.10;75.10
37052;DHT22;22964;52.272;13.356;2023-02-15T07:10:54;4.10;75.10
37052;DHT22;22964;52.272;13.356;2023-02-15T07:13:20;4.20;75.30
37052;DHT22;22964;52.272;13.356;2023-02-15T07:15:47;4.20;75.30
37052;DHT22;22964;52.272;13.356;2023-02-15T07:18:13;4.20;75.20
37052;DHT22;22964;52.272;13.356;2023-02-15T07:20:39;4.20;75.20
37052;DHT22;22964;52.272;13.356;2023-02-15T07:23:07;4.20;75.20
37052;DHT22;22964;52.272;13.356;2023-02-15T07:25:34;4.30;75.40
37052;DHT22;22964;52.272;13.356;2023-02-15T07:28:02;4.30;75.40
37052;DHT22;22964;52.272;13.356;2023-02-15T07:30:28;4.30;75.40
37052;DHT22;22964;52.272;13.356;2023-02-15T07:32:59;4.30;75.50
37052;DHT22;22964;52.272;13.356;2023-02-15T07:35:47;4.30;75.40
37052;DHT22;22964;52.272;13.356;2023-02-15T07:38:14;4.40;75.50
37052;DHT22;22964;52.272;13.356;2023-02-15T07:40:40;4.30;75.40
37052;DHT22;22964;52.272;13.356;2023-02-15T07:43:05;4.30;75.30
37052;DHT22;22964;52.272;13.356;2023-02-15T07:45:31;4.30;75.40
37052;DHT22;22964;52.272;13.356;2023-02-15T07:47:57;4.40;75.40
37052;DHT22;22964;52.272;13.356;2023-02-15T07:50:23;4.30;75.50
37052;DHT22;22964;52.272;13.356;2023-02-15T07:52:48;4.40;75.70
37052;DHT22;22964;52.272;13.356;2023-02-15T07:55:14;4.40;75.70
37052;DHT22;22964;52.272;13.356;2023-02-15T07:57:44;4.40;75.80
37052;DHT22;22964;52.272;13.356;2023-02-15T08:00:11;4.40;75.90
37052;DHT22;22964;52.272;13.356;2023-02-15T08:02:39;4.40;75.90
37052;DHT22;22964;52.272;13.356;2023-02-15T08:05:05;4.50;76.20
37052;DHT22;22964;52.272;13.356;2023-02-15T08:07:31;4.50;76.20
37052;DHT22;22964;52.272;13.356;2023-02-15T08:09:57;4.60;76.40
37052;DHT22;22964;52.272;13.356;2023-02-15T08:12:26;4.60;76.40
37052;DHT22;22964;52.272;13.356;2023-02-15T08:14:52;4.70;76.50
37052;DHT22;22964;52.272;13.356;2023-02-15T08:17:18;4.70;76.50
37052;DHT22;22964;52.272;13.356;2023-02-15T08:19:43;4.80;76.60
37052;DHT22;22964;52.272;13.356;2023-02-15T08:22:13;4.80;76.60
37052;DHT22;22964;52.272;13.356;2023-02-15T08:24:39;4.90;76.90
37052;DHT22;22964;52.272;13.356;2023-02-15T08:27:08;4.90;76.80
37052;DHT22;22964;52.272;13.356;2023-02-15T08:29:35;5.00;77.00
37052;DHT22;22964;52.272;13.356;2023-02-15T08:32:07;5.00;76.60
37052;DHT22;22964;52.272;13.356;2023-02-15T08:34:36;5.00;76.60
37052;DHT22;22964;52.272;13.356;2023-02-15T08:37:02;5.10;76.80
37052;DHT22;22964;52.272;13.356;2023-02-15T08:39:28;5.10;76.80
37052;DHT22;22964;52.272;13.356;2023-02-15T08:41:54;5.20;76.90
37052;DHT22;22964;52.272;13.356;2023-02-15T08:44:20;5.20;77.00
37052;DHT22;22964;52.272;13.356;2023-02-15T08:46:47;5.30;77.00
37052;DHT22;22964;52.272;13.356;2023-02-15T08:49:19;5.30;77.10
37052;DHT22;22964;52.272;13.356;2023-02-15T08:51:46;5.40;77.20
37052;DHT22;22964;52.272;13.356;2023-02-15T08:54:14;5.40;77.10
37052;DHT22;22964;52.272;13.356;2023-02-15T08:56:42;5.50;77.10
37052;DHT22;22964;52.272;13.356;2023-02-15T08:59:13;5.60;77.20
37052;DHT22;22964;52.272;13.356;2023-02-15T09:01:39;5.70;77.60
37052;DHT22;22964;52.272;13.356;2023-02-15T09:04:07;5.80;77.80
37052;DHT22;22964;52.272;13.356;2023-02-15T09:06:37;5.80;77.70
37052;DHT22;22964;52.272;13.356;2023-02-15T09:09:03;5.90;77.50
37052;DHT22;22964;52.272;13.356;2023-02-15T09:11:32;5.90;77.20
37052;DHT22;22964;52.272;13.356;2023-02-15T09:14:01;5.90;77.10
37052;DHT22;22964;52.272;13.356;2023-02-15T09:16:29;6.00;77.00
37052;DHT22;22964;52.272;13.356;2023-02-15T09:18:56;6.00;77.20
37052;DHT22;22964;52.272;13.356;2023-02-15T09:21:27;6.00;77.20
37052;DHT22;22964;52.272;13.356;2023-02-15T09:23:57;6.10;77.20
37052;DHT22;22964;52.272;13.356;2023-02-15T09:26:24;6.10;77.20
37052;DHT22;22964;52.272;13.356;2023-02-15T09:28:55;6.20;77.40
37052;DHT22;22964;52.272;13.356;2023-02-15T09:31:26;6.30;77.60
37052;DHT22;22964;52.272;13.356;2023-02-15T09:33:52;6.30;77.60
37052;DHT22;22964;52.272;13.356;2023-02-15T09:38:55;6.40;77.70
37052;DHT22;22964;52.272;13.356;2023-02-15T09:44:17;6.50;77.90
37052;DHT22;22964;52.272;13.356;2023-02-15T09:47:13;6.60;78.60
37052;DHT22;22964;52.272;13.356;2023-02-15T09:55:48;7.00;78.90
37052;DHT22;22964;52.272;13.356;2023-02-15T09:58:42;7.10;78.30
37052;DHT22;22964;52.272;13.356;2023-02-15T10:06:24;7.40;77.80
37052;DHT22;22964;52.272;13.356;2023-02-15T10:09:09;7.50;78.10
37052;DHT22;22964;52.272;13.356;2023-02-15T10:14:35;7.80;78.50
37052;DHT22;22964;52.272;13.356;2023-02-15T10:22:36;8.10;78.00
37052;DHT22;22964;52.272;13.356;2023-02-15T10:27:58;8.40;78.80
37052;DHT22;22964;52.272;13.356;2023-02-15T10:30:54;8.60;78.90
37052;DHT22;22964;52.272;13.356;2023-02-15T10:33:39;8.70;78.80
37052;DHT22;22964;52.272;13.356;2023-02-15T10:36:16;9.00;78.40
37052;DHT22;22964;52.272;13.356;2023-02-15T10:39:18;9.10;78.00
37052;DHT22;22964;52.272;13.356;2023-02-15T10:41:59;9.30;77.70
37052;DHT22;22964;52.272;13.356;2023-02-15T10:50:35;10.00;76.10
37052;DHT22;22964;52.272;13.356;2023-02-15T10:53:24;10.10;75.80
37052;DHT22;22964;52.272;13.356;2023-02-15T10:59:04;10.50;75.90
37052;DHT22;22964;52.272;13.356;2023-02-15T11:01:48;10.70;75.60
37052;DHT22;22964;52.272;13.356;2023-02-15T11:06:50;11.00;75.30
37052;DHT22;22964;52.272;13.356;2023-02-15T11:09:18;11.30;75.10
37052;DHT22;22964;52.272;13.356;2023-02-15T11:11:50;11.40;74.80
37052;DHT22;22964;52.272;13.356;2023-02-15T11:16:50;11.80;74.40
37052;DHT22;22964;52.272;13.356;2023-02-15T11:19:32;11.90;72.50
37052;DHT22;22964;52.272;13.356;2023-02-15T11:22:04;12.10;71.50
37052;DHT22;22964;52.272;13.356;2023-02-15T11:24:36;12.20;71.30
37052;DHT22;22964;52.272;13.356;2023-02-15T11:30:02;12.40;70.90
37052;DHT22;22964;52.272;13.356;2023-02-15T11:32:32;12.50;70.70
37052;DHT22;22964;52.272;13.356;2023-02-15T11:37:48;12.80;70.90
37052;DHT22;22964;52.272;13.356;2023-02-15T11:40:26;12.90;70.40
37052;DHT22;22964;52.272;13.356;2023-02-15T11:43:04;13.10;70.40
37052;DHT22;22964;52.272;13.356;2023-02-15T11:45:32;13.20;70.10
37052;DHT22;22964;52.272;13.356;2023-02-15T11:48:00;13.30;70.20
37052;DHT22;22964;52.272;13.356;2023-02-15T11:50:31;13.50;69.70
37052;DHT22;22964;52.272;13.356;2023-02-15T11:53:04;13.70;69.40
37052;DHT22;22964;52.272;13.356;2023-02-15T11:55:31;13.80;69.20
37052;DHT22;22964;52.272;13.356;2023-02-15T11:58:14;13.90;69.10
37052;DHT22;22964;52.272;13.356;2023-02-15T12:00:47;14.10;69.10
37052;DHT22;22964;52.272;13.356;2023-02-15T12:03:15;14.30;68.10
37052;DHT22;22964;52.272;13.356;2023-02-15T12:05:45;14.40;69.10
37052;DHT22;22964;52.272;13.356;2023-02-15T12:10:44;14.60;67.60
37052;DHT22;22964;52.272;13.356;2023-02-15T12:13:18;14.70;66.40
37052;DHT22;22964;52.272;13.356;2023-02-15T12:15:46;14.80;66.50
37052;DHT22;22964;52.272;13.356;2023-02-15T12:18:38;14.90;66.20
37052;DHT22;22964;52.272;13.356;2023-02-15T12:23:47;15.10;65.20
37052;DHT22;22964;52.272;13.356;2023-02-15T12:26:14;15.20;65.20
37052;DHT22;22964;52.272;13.356;2023-02-15T12:28:49;15.30;65.60
37052;DHT22;22964;52.272;13.356;2023-02-15T12:31:36;15.40;64.60
37052;DHT22;22964;52.272;13.356;2023-02-15T12:34:08;15.50;64.80
37052;DHT22;22964;52.272;13.356;2023-02-15T12:36:49;15.60;65.20
37052;DHT22;22964;52.272;13.356;2023-02-15T12:39:22;15.80;63.90
37052;DHT22;22964;52.272;13.356;2023-02-15T12:44:23;16.00;63.60
37052;DHT22;22964;52.272;13.356;2023-02-15T12:49:24;16.20;62.10
37052;DHT22;22964;52.272;13.356;2023-02-15T12:51:52;16.20;62.00
37052;DHT22;22964;52.272;13.356;2023-02-15T12:54:35;16.30;61.70
37052;DHT22;22964;52.272;13.356;2023-02-15T12:57:28;16.30;60.40
37052;DHT22;22964;52.272;13.356;2023-02-15T13:04:53;16.50;60.20
37052;DHT22;22964;52.272;13.356;2023-02-15T13:07:19;16.50;59.90
37052;DHT22;22964;52.272;13.356;2023-02-15T13:09:46;16.50;60.00
37052;DHT22;22964;52.272;13.356;2023-02-15T13:12:22;16.50;61.10
37052;DHT22;22964;52.272;13.356;2023-02-15T13:14:51;16.60;59.00
37052;DHT22;22964;52.272;13.356;2023-02-15T13:17:20;16.60;59.50
37052;DHT22;22964;52.272;13.356;2023-02-15T13:19:52;16.70;59.00
37052;DHT22;22964;52.272;13.356;2023-02-15T13:22:22;16.70;59.10
37052;DHT22;22964;52.272;13.356;2023-02-15T13:24:56;16.70;59.30
37052;DHT22;22964;52.272;13.356;2023-02-15T13:27:44;16.80;58.60
37052;DHT22;22964;52.272;13.356;2023-02-15T13:30:38;16.80;57.90
37052;DHT22;22964;52.272;13.356;2023-02-15T13:33:05;16.90;58.60
37052;DHT22;22964;52.272;13.356;2023-02-15T13:39:29;17.00;56.80
37052;DHT22;22964;52.272;13.356;2023-02-15T13:42:30;17.10;57.50
37052;DHT22;22964;52.272;13.356;2023-02-15T13:45:08;17.20;58.90
37052;DHT22;22964;52.272;13.356;2023-02-15T13:47:48;17.20;56.80
37052;DHT22;22964;52.272;13.356;2023-02-15T13:55:57;17.30;56.20
37052;DHT22;22964;52.272;13.356;2023-02-15T13:59:02;17.30;57.10
37052;DHT22;22964;52.272;13.356;2023-02-15T14:12:37;17.10;55.90
37052;DHT22;22964;52.272;13.356;2023-02-15T14:18:04;16.90;56.10
37052;DHT22;22964;52.272;13.356;2023-02-15T14:25:57;16.80;56.40
37052;DHT22;22964;52.272;13.356;2023-02-15T14:30:56;16.70;56.10
37052;DHT22;22964;52.272;13.356;2023-02-15T14:33:41;16.70;56.20
37052;DHT22;22964;52.272;13.356;2023-02-15T14:36:13;16.70;55.40
37052;DHT22;22964;52.272;13.356;2023-02-15T14:41:57;16.60;55.90
37052;DHT22;22964;52.272;13.356;2023-02-15T14:44:42;16.60;57.00
37052;DHT22;22964;52.272;13.356;2023-02-15T14:47:14;16.60;55.50
37052;DHT22;22964;52.272;13.356;2023-02-15T14:49:41;16.50;56.20
37052;DHT22;22964;52.272;13.356;2023-02-15T14:52:11;16.50;56.40
37052;DHT22;22964;52.272;13.356;2023-02-15T14:59:39;16.40;56.40
37052;DHT22;22964;52.272;13.356;2023-02-15T15:04:39;16.40;56.30
37052;DHT22;22964;52.272;13.356;2023-02-15T15:07:23;16.40;56.20
37052;DHT22;22964;52.272;13.356;2023-02-15T15:10:03;16.40;55.80
37052;DHT22;22964;52.272;13.356;2023-02-15T15:12:42;16.30;56.00
37052;DHT22;22964;52.272;13.356;2023-02-15T15:15:16;16.30;56.60
37052;DHT22;22964;52.272;13.356;2023-02-15T15:17:59;16.20;56.30
37052;DHT22;22964;52.272;13.356;2023-02-15T15:48:00;15.70;57.20
37052;DHT22;22964;52.272;13.356;2023-02-15T15:50:27;15.60;57.40
37052;DHT22;22964;52.272;13.356;2023-02-15T15:52:57;15.60;57.50
37052;DHT22;22964;52.272;13.356;2023-02-15T15:55:26;15.50;57.30
37052;DHT22;22964;52.272;13.356;2023-02-15T15:58:13;15.50;57.40
37052;DHT22;22964;52.272;13.356;2023-02-15T16:00:50;15.50;57.90
37052;DHT22;22964;52.272;13.356;2023-02-15T16:03:23;15.40;57.10
37052;DHT22;22964;52.272;13.356;2023-02-15T16:05:49;15.30;57.10
37052;DHT22;22964;52.272;13.356;2023-02-15T16:10:54;15.20;57.00
37052;DHT22;22964;52.272;13.356;2023-02-15T16:13:20;15.10;57.30
37052;DHT22;22964;52.272;13.356;2023-02-15T16:15:48;15.10;57.30
37052;DHT22;22964;52.272;13.356;2023-02-15T16:18:20;15.00;57.20
37052;DHT22;22964;52.272;13.356;2023-02-15T16:20:59;14.90;57.00
37052;DHT22;22964;52.272;13.356;2023-02-15T16:29:31;14.50;57.10
37052;DHT22;22964;52.272;13.356;2023-02-15T16:32:06;14.40;56.80
37052;DHT22;22964;52.272;13.356;2023-02-15T16:34:33;14.20;56.90
37052;DHT22;22964;52.272;13.356;2023-02-15T16:37:19;14.10;57.10
37052;DHT22;22964;52.272;13.356;2023-02-15T16:39:47;14.00;56.90
37052;DHT22;22964;52.272;13.356;2023-02-15T16:42:17;13.80;57.30
37052;DHT22;22964;52.272;13.356;2023-02-15T16:44:45;13.70;57.30
37052;DHT22;22964;52.272;13.356;2023-02-15T16:49:50;13.50;57.20
37052;DHT22;22964;52.272;13.356;2023-02-15T16:52:22;13.40;57.40
37052;DHT22;22964;52.272;13.356;2023-02-15T16:55:02;13.20;57.40
37052;DHT22;22964;52.272;13.356;2023-02-15T16:57:33;13.10;57.50
37052;DHT22;22964;52.272;13.356;2023-02-15T17:00:08;13.00;57.70
37052;DHT22;22964;52.272;13.356;2023-02-15T17:05:25;12.80;58.30
37052;DHT22;22964;52.272;13.356;2023-02-15T17:08:24;12.60;58.50
37052;DHT22;22964;52.272;13.356;2023-02-15T17:11:10;12.60;58.50
37052;DHT22;22964;52.272;13.356;2023-02-15T17:13:37;12.50;58.70
37052;DHT22;22964;52.272;13.356;2023-02-15T17:18:30;12.30;59.00
37052;DHT22;22964;52.272;13.356;2023-02-15T17:21:01;12.20;59.10
37052;DHT22;22964;52.272;13.356;2023-02-15T17:23:42;12.00;59.00
37052;DHT22;22964;52.272;13.356;2023-02-15T17:26:29;12.00;59.10
37052;DHT22;22964;52.272;13.356;2023-02-15T17:28:59;11.80;59.10
37052;DHT22;22964;52.272;13.356;2023-02-15T17:31:32;11.80;59.40
37052;DHT22;22964;52.272;13.356;2023-02-15T17:33:59;11.70;59.50
37052;DHT22;22964;52.272;13.356;2023-02-15T17:36:30;11.60;59.40
37052;DHT22;22964;52.272;13.356;2023-02-15T17:41:29;11.50;59.30
37052;DHT22;22964;52.272;13.356;2023-02-15T17:43:55;11.40;59.40
37052;DHT22;22964;52.272;13.356;2023-02-15T17:46:21;11.30;59.50
37052;DHT22;22964;52.272;13.356;2023-02-15T17:48:49;11.20;59.60
37052;DHT22;22964;52.272;13.356;2023-02-15T17:51:16;11.20;59.90
37052;DHT22;22964;52.272;13.356;2023-02-15T17:53:43;11.10;60.20
37052;DHT22;22964;52.272;13.356;2023-02-15T17:56:27;11.10;60.50
37052;DHT22;22964;52.272;13.356;2023-02-15T17:58:53;11.00;60.70
37052;DHT22;22964;52.272;13.356;2023-02-15T18:01:19;10.90;60.80
37052;DHT22;22964;52.272;13.356;2023-02-15T18:04:04;10.90;60.90
37052;DHT22;22964;52.272;13.356;2023-02-15T18:06:51;10.80;61.00
37052;DHT22;22964;52.272;13.356;2023-02-15T18:09:36;10.80;61.30
37052;DHT22;22964;52.272;13.356;2023-02-15T18:14:48;10.70;61.70
37052;DHT22;22964;52.272;13.356;2023-02-15T18:17:15;10.60;62.50
37052;DHT22;22964;52.272;13.356;2023-02-15T18:19:43;10.60;61.60
37052;DHT22;22964;52.272;13.356;2023-02-15T18:22:14;10.60;61.50
37052;DHT22;22964;52.272;13.356;2023-02-15T18:24:42;10.50;61.40
37052;DHT22;22964;52.272;13.356;2023-02-15T18:27:10;10.50;61.40
37052;DHT22;22964;52.272;13.356;2023-02-15T18:29:36;10.50;61.40
37052;DHT22;22964;52.272;13.356;2023-02-15T18:32:09;10.40;61.30
37052;DHT22;22964;52.272;13.356;2023-02-15T18:34:40;10.30;61.30
37052;DHT22;22964;52.272;13.356;2023-02-15T18:37:13;10.30;61.30
37052;DHT22;22964;52.272;13.356;2023-02-15T18:39:42;10.20;61.10
37052;DHT22;22964;52.272;13.356;2023-02-15T18:42:31;10.20;61.10
37052;DHT22;22964;52.272;13.356;2023-02-15T18:45:01;10.10;61.00
37052;DHT22;22964;52.272;13.356;2023-02-15T18:47:31;10.00;61.10
37052;DHT22;22964;52.272;13.356;2023-02-15T18:49:57;10.00;61.20
37052;DHT22;22964;52.272;13.356;2023-02-15T18:52:27;9.90;61.30